Istrana Air Base

LIPS · 威尼托, 意大利

2024年4月21日 08:002024年4月21日 17:00有效
时间
星期日
08:00
星期日
09:00
星期日
10:00
星期日
11:00
星期日
12:00
星期日
13:00
星期日
14:00
星期日
15:00
星期日
16:00
代码
VFR
VFR
VFR
VFR
VFR
VFR
VFR
VFR
VFR
天气
天空晴朗
天空晴朗
天空晴朗
天空晴朗
天空晴朗
天空晴朗
天空晴朗
疏云,零星散落的云朵
疏云,零星散落的云朵
能见度
10 km+
10 km+
10 km+
10 km+
10 km+
10 km+
10 km+
10 km+
10 km+
天花板
-
-
-
-
-
-
-
-
-
Var
Var
Var
Var
Var
Var
Var
Var
Var
Var
Var
Var
Var
Var
Var
Var
Var
Var
速度
5 kt
5 kt
5 kt
5 kt
5 kt
5 kt
5 kt
5 kt
5 kt
阵风
温度/星期日

原版的

TAF LIPS 210500Z 2106/2115 VRB05KT CAVOK
BECMG 2111/2113 9999 FEW020 SCT040

TAF Istrana Air Base

Istrana Air Base是,意大利中的中型机场。 该机场位于纬度45,68445和经度12,08720。 该机场有一条跑道: 8/26. 本场的ICAO机场代码为LIPS。 机场在Milano FIR中。

该航空气象观测是针对Istrana Air Base在2024年4月21日 07:00, 当地时间进行的。 从2024年4月21日 08:00到2024年4月21日 17:00, 当地时间有效.

预报

  • 在星期日 08:00和17:00之间

    • 风: 可变方向的风很小或没有。
    • CAVOK: 天气为CAVOK。这意味着在5.000 ft或MSA(最低安全高度)以下(以较高者为准)以下没有云。这也意味着没有观测到积雨云或高耸的积云,可见度为10 km 或者更多或更高。此外,不会有雾,降雨或其他重要天气。
  • 介于星期日 13:00和15:00之间

    • 能见度: 10 km 或者更多
    • 乌云: 几云在2.000 ft的高度 和 疏云,零星散落的云朵在4.000 ft的高度.

白天

今天,太阳从06:14升起,在20:06降落。 这适用于Istrana Air Base,世界夏令时可能有所不同。 当地时间与世界标准时间之间的时差为+2 小时。 夏令时目前正在进行中。

报告变更